Flight Track Log - Related Links

Times and Time Zones

All times are in EST time to prevent confusion due to time zone crossing. See the ASQ5941 flight status page for this flight to view local times or setup timezone preferences in your user account.

Time Position Orientation Groundspeed Altitude Reporting Facility
EST Latitude Longitude Course Direction KTS MPH feet Rate Location/Type
Thu 05:48:55 PM 42.0000 -87.9500 80° East 164 189 1,900  Level Chicago TRACON
Thu 05:49:49 PM 42.0333 -87.9500 360° North 218 251 3,600 1,800 Climbing Chicago TRACON
Thu 05:50:55 PM 42.1000 -87.8833 37° Northeast 270 311 5,500 1,855 Climbing Chicago TRACON
Thu 05:51:39 PM 42.1419 -87.8353 40° Northeast 274 315 7,000 2,208 Climbing Chicago Center
Thu 05:52:41 PM 42.1561 -87.7244 80° East 289 333 9,400 2,274 Climbing Chicago Center
Thu 05:53:43 PM 42.1494 -87.6144 95° East 294 338 11,700 1,694 Climbing Chicago Center
Thu 05:54:00 PM 42.1023 -86.9820 80° East  Level FlightAware Approximate
Thu 05:54:45 PM 42.1422 -87.4886 94° East 311 358 12,900  Level Chicago Center
Thu 05:55:47 PM 42.1333 -87.3547 95° East 357 411 13,700 919 Climbing Chicago Center
Thu 05:56:49 PM 42.1231 -87.2047 95° East 374 430 14,800 1,016 Climbing Chicago Center
Thu 05:57:51 PM 42.1136 -87.0608 95° East 384 442 15,800 968 Climbing Chicago Center
Thu 05:58:53 PM 42.1175 -86.9086 88° East 395 455 16,800 968 Climbing Chicago Center
Thu 05:59:55 PM 42.1228 -86.7600 87° East 396 456 17,800 864 Climbing Chicago Center
Thu 06:00:58 PM 42.1292 -86.6225 86° East 400 460 18,600 960 Climbing Chicago Center
Thu 06:02:00 PM 42.1353 -86.4400 87° East 405 466 19,800 1,065 Climbing Chicago Center
Thu 06:03:02 PM 42.1394 -86.2864 88° East 409 471 20,800 1,113 Climbing Chicago Center
Thu 06:04:04 PM 42.1444 -86.1331 87° East 410 472 22,100 1,210 Climbing Chicago Center
Thu 06:05:06 PM 42.1442 -85.9794 90° East 411 473 23,300 1,210 Climbing Chicago Center
Thu 06:06:08 PM 42.1417 -85.8094 91° East 409 471 24,600 1,210 Climbing Chicago Center
Thu 06:07:10 PM 42.1400 -85.6586 91° East 405 466 25,800 1,065 Climbing Chicago Center
Thu 06:08:12 PM 42.1383 -85.5061 91° East 409 471 26,800 968 Climbing Chicago Center
Thu 06:09:14 PM 42.1367 -85.3550 91° East 408 470 27,800 968 Climbing Chicago Center
Thu 06:10:16 PM 42.1364 -85.2022 90° East 410 472 28,800 1,056 Climbing Chicago Center
Thu 06:11:19 PM 42.1333 -85.0192 91° East 410 472 30,000 1,056 Climbing Chicago Center
Thu 06:12:21 PM 42.1314 -84.8664 91° East 409 471 31,000 968 Climbing Chicago Center
Thu 06:13:23 PM 42.1289 -84.7111 91° East 413 475 32,000 1,016 Climbing Chicago Center
Thu 06:14:25 PM 42.1261 -84.5533 91° East 419 482 33,100 1,016 Climbing Chicago Center
Thu 06:15:27 PM 42.1175 -84.3950 94° East 424 488 34,100 1,020 Climbing Chicago Center
Thu 06:16:05 PM 42.1081 -84.2736 96° East 421 484 34,800 540 Climbing Cleveland Center
Thu 06:17:07 PM 42.0981 -84.1142 95° East 428 493 35,000 97 Climbing Cleveland Center
Thu 06:18:09 PM 42.0878 -83.9461 95° East 450 518 35,000  Level Cleveland Center
Thu 06:19:11 PM 42.0778 -83.7706 94° East 470 541 35,000  Level Cleveland Center
Thu 06:20:13 PM 42.0667 -83.5947 95° East 475 547 35,000  Level Cleveland Center
Thu 06:21:16 PM 42.0514 -83.3783 95° East 480 552 35,000  Level Cleveland Center
Thu 06:22:18 PM 42.0403 -83.2050 95° East 486 559 35,000  Level Cleveland Center
Thu 06:23:20 PM 42.0278 -83.0253 95° East 486 559 35,000  Level Cleveland Center
Thu 06:24:22 PM 42.0150 -82.8453 95° East 486 559 35,000  Level Cleveland Center
Thu 06:25:24 PM 41.9983 -82.6286 96° East 487 560 35,000  Level Cleveland Center
Thu 06:26:26 PM 41.9850 -82.4450 96° East 490 564 35,000  Level Cleveland Center
Thu 06:27:28 PM 41.9717 -82.2617 96° East 494 568 35,000  Level Cleveland Center
Thu 06:28:30 PM 41.9581 -82.0858 96° East 494 568 35,000  Level Cleveland Center
Thu 06:29:32 PM 41.9400 -81.8675 96° East 495 570 35,000  Level Cleveland Center
Thu 06:30:35 PM 41.9244 -81.6797 96° East 495 570 35,000  Level Cleveland Center
Thu 06:31:37 PM 41.9092 -81.4908 96° East 499 574 35,000  Level Cleveland Center
Thu 06:32:39 PM 41.8936 -81.3014 96° East 500 575 35,000  Level Cleveland Center
Thu 06:33:41 PM 41.8764 -81.1111 97° East 503 579 35,000  Level Cleveland Center
Thu 06:34:43 PM 41.8600 -80.9211 97° East 504 580 35,000  Level Cleveland Center
Thu 06:35:45 PM 41.8439 -80.7306 96° East 507 583 35,000  Level Cleveland Center
Thu 06:36:47 PM 41.8264 -80.5406 97° East 507 583 35,000  Level Cleveland Center
Thu 06:37:49 PM 41.8083 -80.3500 97° East 507 583 35,000  Level Cleveland Center
Thu 06:38:51 PM 41.7872 -80.1250 97° East 516 594 35,000  Level Cleveland Center
Thu 06:39:53 PM 41.7686 -79.9308 97° East 518 596 35,000  Level Cleveland Center
Thu 06:40:56 PM 41.7492 -79.7347 98° East 525 604 35,000 -144 Level Cleveland Center
Thu 06:41:58 PM 41.7281 -79.5264 98° East 523 602 34,700 -532 Descending Cleveland Center
Thu 06:43:00 PM 41.7094 -79.3369 97° East 520 598 33,900 -871 Descending Cleveland Center
Thu 06:44:02 PM 41.6883 -79.1433 98° East 518 596 32,900 -968 Descending Cleveland Center
Thu 06:45:04 PM 41.6683 -78.9517 98° East 523 602 31,900 -919 Descending Cleveland Center
Thu 06:46:06 PM 41.6475 -78.7581 98° East 524 603 31,000 -919 Descending Cleveland Center
Thu 06:47:08 PM 41.6261 -78.5639 98° East 525 604 30,000 -1,548 Descending Cleveland Center
Thu 06:48:10 PM 41.6014 -78.3300 98° East 525 604 27,800 -2,016 Descending Cleveland Center
Thu 06:49:13 PM 41.5781 -78.1369 99° East 526 605 25,800 -1,872 Descending Cleveland Center
Thu 06:50:15 PM 41.5575 -77.9533 98° East 505 581 23,900 -1,355 Descending Cleveland Center
Thu 06:51:17 PM 41.5378 -77.7781 98° East 486 559 23,000 -484 Descending Cleveland Center
Thu 06:52:19 PM 41.5150 -77.5922 99° East 488 562 22,900 -683 Descending New York Center
Thu 06:53:20 PM 41.4939 -77.4156 99° East 488 562 21,600 -1,400 Descending New York Center
Thu 06:54:19 PM 41.4719 -77.2472 100° East 482 555 20,100 -1,664 Descending New York Center
Thu 06:55:19 PM 41.4536 -77.0847 99° East 457 526 18,300 -1,587 Descending New York Center
Thu 06:56:20 PM 41.4328 -76.9250 100° East 444 511 16,900 -1,700 Descending New York Center
Thu 06:57:19 PM 41.4133 -76.7739 100° East 427 491 14,900 -2,118 Descending New York Center
Thu 06:58:19 PM 41.3922 -76.6117 100° East 407 468 12,700 -1,850 Descending New York Center
Thu 06:59:19 PM 41.3775 -76.4858 99° East 372 428 11,200 -1,300 Descending New York Center
Thu 07:00:19 PM 41.3636 -76.3850 100° East 322 371 10,100 -1,041 Descending New York Center
Thu 07:01:20 PM 41.3519 -76.2819 99° East 288 331 9,100 -1,000 Descending New York Center
Thu 07:02:19 PM 41.3361 -76.1700 101° East 281 323 8,100 -1,311 Descending New York Center
Thu 07:03:19 PM 41.3239 -76.0753 100° East 276 318 6,500 -1,300 Descending New York Center
Thu 07:04:19 PM 41.3217 -75.9839 92° East 264 304 5,500 -1,100 Descending New York Center
Thu 07:05:19 PM 41.3481 -75.9028 67° East 239 275 4,300 -1,150 Descending New York Center
Thu 07:06:19 PM 41.3700 -75.8300 68° East 226 260 3,200 -700 Descending New York Center
Thu 07:07:19 PM 41.3914 -75.7625 67° East 210 242 2,900 -200 Descending New York Center
Thu 07:08:19 PM 41.4064 -75.7028 71° East 187 215 2,800 -550 Descending New York Center
Thu 07:09:19 PM 41.3758 -75.6894 162° South 88 101 1,800 -700 Descending New York Center
Thu 07:10:19 PM 41.3617 -75.6800 153° Southeast 82 94 1,400 -400 Descending New York Center

Login

Don't have an account? Register now (free) for customized features, flight alerts, and more!